sensor_id;sensor_type;location;lat;lon;timestamp;temperature;humidity
37658;DHT22;23500;53.268;8.308;2023-02-10T00:01:10;15.20;68.10
37658;DHT22;23500;53.268;8.308;2023-02-10T00:03:36;15.20;68.20
37658;DHT22;23500;53.268;8.308;2023-02-10T00:06:03;15.10;68.00
37658;DHT22;23500;53.268;8.308;2023-02-10T00:08:30;15.10;68.20
37658;DHT22;23500;53.268;8.308;2023-02-10T00:11:07;15.10;68.20
37658;DHT22;23500;53.268;8.308;2023-02-10T00:13:33;15.10;68.30
37658;DHT22;23500;53.268;8.308;2023-02-10T00:16:01;15.10;68.30
37658;DHT22;23500;53.268;8.308;2023-02-10T00:18:27;15.10;68.40
37658;DHT22;23500;53.268;8.308;2023-02-10T00:20:53;15.10;68.40
37658;DHT22;23500;53.268;8.308;2023-02-10T00:23:19;15.00;68.30
37658;DHT22;23500;53.268;8.308;2023-02-10T00:25:45;15.00;68.40
37658;DHT22;23500;53.268;8.308;2023-02-10T00:28:11;15.00;68.50
37658;DHT22;23500;53.268;8.308;2023-02-10T00:30:38;15.00;68.50
37658;DHT22;23500;53.268;8.308;2023-02-10T00:33:04;15.00;68.60
37658;DHT22;23500;53.268;8.308;2023-02-10T00:35:30;15.00;68.60
37658;DHT22;23500;53.268;8.308;2023-02-10T00:37:56;15.00;68.60
37658;DHT22;23500;53.268;8.308;2023-02-10T00:40:22;15.00;68.80
37658;DHT22;23500;53.268;8.308;2023-02-10T00:42:48;15.00;68.80
37658;DHT22;23500;53.268;8.308;2023-02-10T00:45:13;14.90;68.80
37658;DHT22;23500;53.268;8.308;2023-02-10T00:47:39;14.90;68.80
37658;DHT22;23500;53.268;8.308;2023-02-10T00:50:05;14.90;68.70
37658;DHT22;23500;53.268;8.308;2023-02-10T00:52:31;14.90;68.60
37658;DHT22;23500;53.268;8.308;2023-02-10T00:54:57;14.90;68.70
37658;DHT22;23500;53.268;8.308;2023-02-10T00:57:22;14.90;68.40
37658;DHT22;23500;53.268;8.308;2023-02-10T00:59:48;14.90;68.50
37658;DHT22;23500;53.268;8.308;2023-02-10T01:02:14;14.80;68.80
37658;DHT22;23500;53.268;8.308;2023-02-10T01:04:39;14.80;68.60
37658;DHT22;23500;53.268;8.308;2023-02-10T01:07:05;14.80;68.60
37658;DHT22;23500;53.268;8.308;2023-02-10T01:09:31;14.80;68.60
37658;DHT22;23500;53.268;8.308;2023-02-10T01:11:56;14.80;68.40
37658;DHT22;23500;53.268;8.308;2023-02-10T01:14:23;14.90;68.40
37658;DHT22;23500;53.268;8.308;2023-02-10T01:16:49;15.00;68.60
37658;DHT22;23500;53.268;8.308;2023-02-10T01:19:15;15.00;67.90
37658;DHT22;23500;53.268;8.308;2023-02-10T01:21:41;15.20;67.50
37658;DHT22;23500;53.268;8.308;2023-02-10T01:24:07;15.30;67.40
37658;DHT22;23500;53.268;8.308;2023-02-10T01:26:33;15.60;67.20
37658;DHT22;23500;53.268;8.308;2023-02-10T01:28:59;16.70;63.50
37658;DHT22;23500;53.268;8.308;2023-02-10T01:31:25;17.90;59.80
37658;DHT22;23500;53.268;8.308;2023-02-10T01:33:52;19.00;56.80
37658;DHT22;23500;53.268;8.308;2023-02-10T01:36:20;19.90;54.60
37658;DHT22;23500;53.268;8.308;2023-02-10T01:38:46;20.70;52.80
37658;DHT22;23500;53.268;8.308;2023-02-10T01:41:14;21.30;51.40
37658;DHT22;23500;53.268;8.308;2023-02-10T01:44:05;21.80;50.00
37658;DHT22;23500;53.268;8.308;2023-02-10T01:46:34;22.40;48.70
37658;DHT22;23500;53.268;8.308;2023-02-10T01:49:10;22.90;47.50
37658;DHT22;23500;53.268;8.308;2023-02-10T01:51:42;23.20;47.20
37658;DHT22;23500;53.268;8.308;2023-02-10T01:54:12;23.20;47.00
37658;DHT22;23500;53.268;8.308;2023-02-10T01:56:40;23.10;47.10
37658;DHT22;23500;53.268;8.308;2023-02-10T01:59:06;22.90;47.30
37658;DHT22;23500;53.268;8.308;2023-02-10T02:01:32;22.70;47.80
37658;DHT22;23500;53.268;8.308;2023-02-10T02:03:58;22.50;48.30
37658;DHT22;23500;53.268;8.308;2023-02-10T02:06:25;22.20;48.90
37658;DHT22;23500;53.268;8.308;2023-02-10T02:08:51;21.80;49.70
37658;DHT22;23500;53.268;8.308;2023-02-10T02:11:25;21.50;50.40
37658;DHT22;23500;53.268;8.308;2023-02-10T02:35:51;18.60;55.50
37658;DHT22;23500;53.268;8.308;2023-02-10T02:38:17;18.30;56.30
37658;DHT22;23500;53.268;8.308;2023-02-10T02:40:43;18.10;56.90
37658;DHT22;23500;53.268;8.308;2023-02-10T02:43:09;17.90;57.40
37658;DHT22;23500;53.268;8.308;2023-02-10T02:48:23;17.60;58.40
37658;DHT22;23500;53.268;8.308;2023-02-10T02:53:28;17.40;59.60
37658;DHT22;23500;53.268;8.308;2023-02-10T02:59:17;17.80;59.80
37658;DHT22;23500;53.268;8.308;2023-02-10T03:01:51;18.60;57.20
37658;DHT22;23500;53.268;8.308;2023-02-10T03:04:20;19.20;55.80
37658;DHT22;23500;53.268;8.308;2023-02-10T03:06:45;19.60;54.90
37658;DHT22;23500;53.268;8.308;2023-02-10T03:09:12;19.80;54.30
37658;DHT22;23500;53.268;8.308;2023-02-10T03:11:38;19.80;54.30
37658;DHT22;23500;53.268;8.308;2023-02-10T03:14:03;19.80;54.30
37658;DHT22;23500;53.268;8.308;2023-02-10T03:16:29;19.60;54.70
37658;DHT22;23500;53.268;8.308;2023-02-10T03:18:55;19.40;55.10
37658;DHT22;23500;53.268;8.308;2023-02-10T03:21:20;19.20;54.90
37658;DHT22;23500;53.268;8.308;2023-02-10T03:23:46;19.10;55.60
37658;DHT22;23500;53.268;8.308;2023-02-10T03:26:12;18.90;55.30
37658;DHT22;23500;53.268;8.308;2023-02-10T03:28:38;18.80;55.80
37658;DHT22;23500;53.268;8.308;2023-02-10T03:31:06;18.60;56.10
37658;DHT22;23500;53.268;8.308;2023-02-10T03:33:32;18.50;56.80
37658;DHT22;23500;53.268;8.308;2023-02-10T03:35:58;18.30;56.50
37658;DHT22;23500;53.268;8.308;2023-02-10T03:38:24;18.10;56.70
37658;DHT22;23500;53.268;8.308;2023-02-10T03:40:51;18.00;57.00
37658;DHT22;23500;53.268;8.308;2023-02-10T03:43:18;17.80;57.50
37658;DHT22;23500;53.268;8.308;2023-02-10T03:45:43;17.70;58.20
37658;DHT22;23500;53.268;8.308;2023-02-10T03:48:09;17.50;58.80
37658;DHT22;23500;53.268;8.308;2023-02-10T03:50:35;17.40;59.00
37658;DHT22;23500;53.268;8.308;2023-02-10T03:53:01;17.30;59.00
37658;DHT22;23500;53.268;8.308;2023-02-10T03:55:26;17.20;59.40
37658;DHT22;23500;53.268;8.308;2023-02-10T03:57:52;17.20;59.90
37658;DHT22;23500;53.268;8.308;2023-02-10T04:00:18;17.20;60.60
37658;DHT22;23500;53.268;8.308;2023-02-10T04:02:44;17.20;61.40
37658;DHT22;23500;53.268;8.308;2023-02-10T04:05:10;17.90;59.30
37658;DHT22;23500;53.268;8.308;2023-02-10T04:07:36;18.40;57.70
37658;DHT22;23500;53.268;8.308;2023-02-10T04:10:03;18.80;56.90
37658;DHT22;23500;53.268;8.308;2023-02-10T04:12:29;19.00;56.20
37658;DHT22;23500;53.268;8.308;2023-02-10T04:14:55;19.10;56.00
37658;DHT22;23500;53.268;8.308;2023-02-10T04:17:20;19.00;56.20
37658;DHT22;23500;53.268;8.308;2023-02-10T04:19:46;18.90;55.90
37658;DHT22;23500;53.268;8.308;2023-02-10T04:22:11;18.70;56.10
37658;DHT22;23500;53.268;8.308;2023-02-10T04:24:37;18.60;56.10
37658;DHT22;23500;53.268;8.308;2023-02-10T04:27:03;18.50;56.40
37658;DHT22;23500;53.268;8.308;2023-02-10T04:29:28;18.40;56.40
37658;DHT22;23500;53.268;8.308;2023-02-10T04:31:54;18.20;56.30
37658;DHT22;23500;53.268;8.308;2023-02-10T04:34:20;18.10;56.30
37658;DHT22;23500;53.268;8.308;2023-02-10T04:36:45;18.00;56.90
37658;DHT22;23500;53.268;8.308;2023-02-10T04:39:11;17.80;57.20
37658;DHT22;23500;53.268;8.308;2023-02-10T04:41:37;17.70;57.80
37658;DHT22;23500;53.268;8.308;2023-02-10T04:44:03;17.50;57.90
37658;DHT22;23500;53.268;8.308;2023-02-10T04:46:29;17.40;57.90
37658;DHT22;23500;53.268;8.308;2023-02-10T04:48:54;17.30;58.50
37658;DHT22;23500;53.268;8.308;2023-02-10T04:51:20;17.20;59.10
37658;DHT22;23500;53.268;8.308;2023-02-10T04:53:46;17.10;59.40
37658;DHT22;23500;53.268;8.308;2023-02-10T04:56:14;17.00;59.90
37658;DHT22;23500;53.268;8.308;2023-02-10T04:58:41;17.00;59.80
37658;DHT22;23500;53.268;8.308;2023-02-10T05:01:06;17.00;60.60
37658;DHT22;23500;53.268;8.308;2023-02-10T05:03:32;17.50;60.30
37658;DHT22;23500;53.268;8.308;2023-02-10T05:05:58;18.20;58.40
37658;DHT22;23500;53.268;8.308;2023-02-10T05:08:24;18.70;57.00
37658;DHT22;23500;53.268;8.308;2023-02-10T05:10:51;19.00;56.30
37658;DHT22;23500;53.268;8.308;2023-02-10T05:13:17;19.00;56.20
37658;DHT22;23500;53.268;8.308;2023-02-10T05:15:43;18.90;56.50
37658;DHT22;23500;53.268;8.308;2023-02-10T05:18:09;18.80;56.80
37658;DHT22;23500;53.268;8.308;2023-02-10T05:20:34;18.70;56.60
37658;DHT22;23500;53.268;8.308;2023-02-10T05:23:00;18.50;57.00
37658;DHT22;23500;53.268;8.308;2023-02-10T05:25:26;18.40;57.10
37658;DHT22;23500;53.268;8.308;2023-02-10T05:27:52;18.30;57.40
37658;DHT22;23500;53.268;8.308;2023-02-10T05:30:17;18.20;57.30
37658;DHT22;23500;53.268;8.308;2023-02-10T05:32:43;18.10;57.80
37658;DHT22;23500;53.268;8.308;2023-02-10T05:35:10;17.90;58.60
37658;DHT22;23500;53.268;8.308;2023-02-10T05:37:36;17.80;58.90
37658;DHT22;23500;53.268;8.308;2023-02-10T05:40:02;17.60;58.70
37658;DHT22;23500;53.268;8.308;2023-02-10T05:42:28;17.50;59.00
37658;DHT22;23500;53.268;8.308;2023-02-10T05:44:54;17.40;59.20
37658;DHT22;23500;53.268;8.308;2023-02-10T05:47:19;17.20;60.00
37658;DHT22;23500;53.268;8.308;2023-02-10T05:49:45;17.10;60.10
37658;DHT22;23500;53.268;8.308;2023-02-10T05:52:11;17.00;60.60
37658;DHT22;23500;53.268;8.308;2023-02-10T05:54:37;17.00;60.70
37658;DHT22;23500;53.268;8.308;2023-02-10T05:57:03;16.90;61.70
37658;DHT22;23500;53.268;8.308;2023-02-10T05:59:29;16.90;62.00
37658;DHT22;23500;53.268;8.308;2023-02-10T06:01:55;16.90;62.30
37658;DHT22;23500;53.268;8.308;2023-02-10T06:04:21;17.40;60.90
37658;DHT22;23500;53.268;8.308;2023-02-10T06:06:46;18.10;58.70
37658;DHT22;23500;53.268;8.308;2023-02-10T06:09:12;18.50;57.70
37658;DHT22;23500;53.268;8.308;2023-02-10T06:11:38;18.60;57.30
37658;DHT22;23500;53.268;8.308;2023-02-10T06:14:03;18.50;57.60
37658;DHT22;23500;53.268;8.308;2023-02-10T06:16:30;18.40;57.10
37658;DHT22;23500;53.268;8.308;2023-02-10T06:18:55;18.30;57.60
37658;DHT22;23500;53.268;8.308;2023-02-10T06:21:21;18.20;57.30
37658;DHT22;23500;53.268;8.308;2023-02-10T06:23:48;18.10;57.50
37658;DHT22;23500;53.268;8.308;2023-02-10T06:26:14;18.10;57.50
37658;DHT22;23500;53.268;8.308;2023-02-10T06:28:40;18.00;58.10
37658;DHT22;23500;53.268;8.308;2023-02-10T06:31:06;17.80;57.70
37658;DHT22;23500;53.268;8.308;2023-02-10T06:33:33;17.70;57.80
37658;DHT22;23500;53.268;8.308;2023-02-10T06:36:01;17.50;58.20
37658;DHT22;23500;53.268;8.308;2023-02-10T06:38:29;17.40;58.20
37658;DHT22;23500;53.268;8.308;2023-02-10T06:40:54;17.30;58.90
37658;DHT22;23500;53.268;8.308;2023-02-10T06:43:20;17.20;60.20
37658;DHT22;23500;53.268;8.308;2023-02-10T06:45:46;17.10;60.50
37658;DHT22;23500;53.268;8.308;2023-02-10T06:48:11;17.00;60.00
37658;DHT22;23500;53.268;8.308;2023-02-10T06:50:37;16.90;60.00
37658;DHT22;23500;53.268;8.308;2023-02-10T06:53:03;16.90;60.70
37658;DHT22;23500;53.268;8.308;2023-02-10T06:55:29;16.90;60.70
37658;DHT22;23500;53.268;8.308;2023-02-10T06:57:58;16.90;61.20
37658;DHT22;23500;53.268;8.308;2023-02-10T07:00:24;17.00;61.40
37658;DHT22;23500;53.268;8.308;2023-02-10T07:02:49;17.00;61.20
37658;DHT22;23500;53.268;8.308;2023-02-10T07:05:15;17.00;61.30
37658;DHT22;23500;53.268;8.308;2023-02-10T07:07:41;17.10;61.40
37658;DHT22;23500;53.268;8.308;2023-02-10T07:10:07;17.10;62.00
37658;DHT22;23500;53.268;8.308;2023-02-10T07:12:33;17.10;62.10
37658;DHT22;23500;53.268;8.308;2023-02-10T07:14:59;17.00;62.20
37658;DHT22;23500;53.268;8.308;2023-02-10T07:17:24;17.00;62.40
37658;DHT22;23500;53.268;8.308;2023-02-10T07:19:50;17.00;62.50
37658;DHT22;23500;53.268;8.308;2023-02-10T07:22:16;16.90;62.60
37658;DHT22;23500;53.268;8.308;2023-02-10T07:24:41;16.90;62.70
37658;DHT22;23500;53.268;8.308;2023-02-10T07:27:07;16.80;62.80
37658;DHT22;23500;53.268;8.308;2023-02-10T07:29:33;16.80;63.10
37658;DHT22;23500;53.268;8.308;2023-02-10T07:31:58;16.70;63.30
37658;DHT22;23500;53.268;8.308;2023-02-10T07:34:25;16.70;63.60
37658;DHT22;23500;53.268;8.308;2023-02-10T07:36:51;16.60;63.80
37658;DHT22;23500;53.268;8.308;2023-02-10T07:39:23;16.60;64.00
37658;DHT22;23500;53.268;8.308;2023-02-10T07:41:49;16.60;64.20
37658;DHT22;23500;53.268;8.308;2023-02-10T07:44:15;16.60;64.30
37658;DHT22;23500;53.268;8.308;2023-02-10T07:46:43;16.50;64.30
37658;DHT22;23500;53.268;8.308;2023-02-10T07:49:09;16.50;64.30
37658;DHT22;23500;53.268;8.308;2023-02-10T07:51:35;16.60;64.40
37658;DHT22;23500;53.268;8.308;2023-02-10T07:54:01;16.60;64.50
37658;DHT22;23500;53.268;8.308;2023-02-10T07:56:27;16.80;63.80
37658;DHT22;23500;53.268;8.308;2023-02-10T07:58:53;17.60;61.30
37658;DHT22;23500;53.268;8.308;2023-02-10T08:01:19;18.20;59.30
37658;DHT22;23500;53.268;8.308;2023-02-10T08:03:44;18.60;58.10
37658;DHT22;23500;53.268;8.308;2023-02-10T08:06:10;18.80;57.70
37658;DHT22;23500;53.268;8.308;2023-02-10T08:08:36;18.90;57.60
37658;DHT22;23500;53.268;8.308;2023-02-10T08:11:05;18.80;57.80
37658;DHT22;23500;53.268;8.308;2023-02-10T08:13:32;18.80;58.10
37658;DHT22;23500;53.268;8.308;2023-02-10T08:15:58;18.60;58.20
37658;DHT22;23500;53.268;8.308;2023-02-10T08:18:23;18.60;58.40
37658;DHT22;23500;53.268;8.308;2023-02-10T08:20:49;18.50;58.50
37658;DHT22;23500;53.268;8.308;2023-02-10T08:23:17;18.40;58.70
37658;DHT22;23500;53.268;8.308;2023-02-10T08:25:43;18.30;59.50
37658;DHT22;23500;53.268;8.308;2023-02-10T08:28:09;18.30;59.10
37658;DHT22;23500;53.268;8.308;2023-02-10T08:30:35;18.20;59.10
37658;DHT22;23500;53.268;8.308;2023-02-10T08:33:01;18.20;59.40
37658;DHT22;23500;53.268;8.308;2023-02-10T08:35:26;18.10;59.50
37658;DHT22;23500;53.268;8.308;2023-02-10T08:37:52;18.00;59.60
37658;DHT22;23500;53.268;8.308;2023-02-10T08:40:18;17.90;59.80
37658;DHT22;23500;53.268;8.308;2023-02-10T08:42:43;17.90;60.10
37658;DHT22;23500;53.268;8.308;2023-02-10T08:45:09;17.70;60.30
37658;DHT22;23500;53.268;8.308;2023-02-10T08:47:35;17.70;60.10
37658;DHT22;23500;53.268;8.308;2023-02-10T08:50:01;17.60;59.20
37658;DHT22;23500;53.268;8.308;2023-02-10T08:52:27;17.60;59.50
37658;DHT22;23500;53.268;8.308;2023-02-10T08:54:53;17.70;59.40
37658;DHT22;23500;53.268;8.308;2023-02-10T08:57:19;17.90;59.60
37658;DHT22;23500;53.268;8.308;2023-02-10T08:59:44;18.20;58.40
37658;DHT22;23500;53.268;8.308;2023-02-10T09:02:11;18.40;57.90
37658;DHT22;23500;53.268;8.308;2023-02-10T09:04:38;18.60;57.40
37658;DHT22;23500;53.268;8.308;2023-02-10T09:07:03;18.60;57.10
37658;DHT22;23500;53.268;8.308;2023-02-10T09:09:29;18.70;56.80
37658;DHT22;23500;53.268;8.308;2023-02-10T09:11:55;18.70;56.50
37658;DHT22;23500;53.268;8.308;2023-02-10T09:14:21;18.70;56.40
37658;DHT22;23500;53.268;8.308;2023-02-10T09:16:46;18.70;56.50
37658;DHT22;23500;53.268;8.308;2023-02-10T09:19:12;18.60;56.30
37658;DHT22;23500;53.268;8.308;2023-02-10T09:21:38;18.40;55.50
37658;DHT22;23500;53.268;8.308;2023-02-10T09:24:04;18.30;55.60
37658;DHT22;23500;53.268;8.308;2023-02-10T09:26:30;18.30;56.10
37658;DHT22;23500;53.268;8.308;2023-02-10T09:28:55;18.20;56.00
37658;DHT22;23500;53.268;8.308;2023-02-10T09:31:22;18.10;56.40
37658;DHT22;23500;53.268;8.308;2023-02-10T09:33:48;18.00;56.60
37658;DHT22;23500;53.268;8.308;2023-02-10T09:36:16;17.90;56.60
37658;DHT22;23500;53.268;8.308;2023-02-10T09:38:42;17.90;57.20
37658;DHT22;23500;53.268;8.308;2023-02-10T09:44:38;17.70;57.60
37658;DHT22;23500;53.268;8.308;2023-02-10T09:52:45;17.70;58.80
37658;DHT22;23500;53.268;8.308;2023-02-10T09:55:25;17.90;58.80
37658;DHT22;23500;53.268;8.308;2023-02-10T10:00:34;18.40;57.40
37658;DHT22;23500;53.268;8.308;2023-02-10T10:03:04;18.60;57.50
37658;DHT22;23500;53.268;8.308;2023-02-10T10:11:01;18.90;56.20
37658;DHT22;23500;53.268;8.308;2023-02-10T10:13:29;19.00;56.20
37658;DHT22;23500;53.268;8.308;2023-02-10T10:21:28;18.80;56.60
37658;DHT22;23500;53.268;8.308;2023-02-10T10:32:46;18.30;57.60
37658;DHT22;23500;53.268;8.308;2023-02-10T10:37:41;18.10;56.50
37658;DHT22;23500;53.268;8.308;2023-02-10T10:40:07;18.10;56.00
37658;DHT22;23500;53.268;8.308;2023-02-10T10:42:55;18.00;56.00
37658;DHT22;23500;53.268;8.308;2023-02-10T10:45:36;17.90;56.60
37658;DHT22;23500;53.268;8.308;2023-02-10T10:48:08;17.90;57.40
37658;DHT22;23500;53.268;8.308;2023-02-10T10:50:35;17.90;58.50
37658;DHT22;23500;53.268;8.308;2023-02-10T10:53:05;18.00;57.80
37658;DHT22;23500;53.268;8.308;2023-02-10T10:55:43;18.20;57.90
37658;DHT22;23500;53.268;8.308;2023-02-10T10:58:27;18.40;57.20
37658;DHT22;23500;53.268;8.308;2023-02-10T11:00:56;18.50;56.70
37658;DHT22;23500;53.268;8.308;2023-02-10T11:03:22;18.60;56.60
37658;DHT22;23500;53.268;8.308;2023-02-10T11:08:55;18.90;55.80
37658;DHT22;23500;53.268;8.308;2023-02-10T11:11:33;19.00;56.00
37658;DHT22;23500;53.268;8.308;2023-02-10T11:14:00;19.00;55.50
37658;DHT22;23500;53.268;8.308;2023-02-10T11:16:27;18.90;54.90
37658;DHT22;23500;53.268;8.308;2023-02-10T11:18:56;18.80;56.30
37658;DHT22;23500;53.268;8.308;2023-02-10T11:21:37;18.80;56.70
37658;DHT22;23500;53.268;8.308;2023-02-10T11:24:03;18.70;56.70
37658;DHT22;23500;53.268;8.308;2023-02-10T11:26:39;18.70;56.80
37658;DHT22;23500;53.268;8.308;2023-02-10T11:29:09;18.60;56.90
37658;DHT22;23500;53.268;8.308;2023-02-10T11:31:38;18.50;57.50
37658;DHT22;23500;53.268;8.308;2023-02-10T11:36:43;18.30;57.50
37658;DHT22;23500;53.268;8.308;2023-02-10T11:39:33;18.20;57.80
37658;DHT22;23500;53.268;8.308;2023-02-10T11:42:30;18.10;58.20
37658;DHT22;23500;53.268;8.308;2023-02-10T11:47:36;17.90;58.80
37658;DHT22;23500;53.268;8.308;2023-02-10T11:50:03;17.90;59.00
37658;DHT22;23500;53.268;8.308;2023-02-10T11:52:30;17.80;59.10
37658;DHT22;23500;53.268;8.308;2023-02-10T11:54:56;17.80;59.30
37658;DHT22;23500;53.268;8.308;2023-02-10T11:57:28;17.80;59.40
37658;DHT22;23500;53.268;8.308;2023-02-10T12:03:33;17.80;59.60
37658;DHT22;23500;53.268;8.308;2023-02-10T12:09:05;17.80;60.20
37658;DHT22;23500;53.268;8.308;2023-02-10T12:12:03;17.90;59.70
37658;DHT22;23500;53.268;8.308;2023-02-10T12:23:25;17.80;59.90
37658;DHT22;23500;53.268;8.308;2023-02-10T12:31:20;17.70;60.20
37658;DHT22;23500;53.268;8.308;2023-02-10T12:34:14;17.70;60.30
37658;DHT22;23500;53.268;8.308;2023-02-10T12:39:36;17.60;60.60
37658;DHT22;23500;53.268;8.308;2023-02-10T12:45:00;17.60;60.90
37658;DHT22;23500;53.268;8.308;2023-02-10T12:53:03;17.50;61.00
37658;DHT22;23500;53.268;8.308;2023-02-10T12:55:52;17.50;61.00
37658;DHT22;23500;53.268;8.308;2023-02-10T12:58:30;17.50;61.10
37658;DHT22;23500;53.268;8.308;2023-02-10T13:03:32;17.60;61.10
37658;DHT22;23500;53.268;8.308;2023-02-10T13:06:19;17.60;61.80
37658;DHT22;23500;53.268;8.308;2023-02-10T13:08:53;17.70;61.00
37658;DHT22;23500;53.268;8.308;2023-02-10T13:11:44;17.70;60.70
37658;DHT22;23500;53.268;8.308;2023-02-10T13:14:25;17.80;60.70
37658;DHT22;23500;53.268;8.308;2023-02-10T13:16:54;17.80;60.50
37658;DHT22;23500;53.268;8.308;2023-02-10T13:25:16;17.80;60.50
37658;DHT22;23500;53.268;8.308;2023-02-10T13:30:15;17.80;60.50
37658;DHT22;23500;53.268;8.308;2023-02-10T13:33:11;17.80;60.50
37658;DHT22;23500;53.268;8.308;2023-02-10T13:35:41;17.70;60.60
37658;DHT22;23500;53.268;8.308;2023-02-10T13:38:13;17.70;60.70
37658;DHT22;23500;53.268;8.308;2023-02-10T13:40:56;17.70;60.80
37658;DHT22;23500;53.268;8.308;2023-02-10T13:43:44;17.70;61.00
37658;DHT22;23500;53.268;8.308;2023-02-10T13:46:27;17.70;61.00
37658;DHT22;23500;53.268;8.308;2023-02-10T13:48:56;17.60;61.10
37658;DHT22;23500;53.268;8.308;2023-02-10T13:51:35;17.60;61.10
37658;DHT22;23500;53.268;8.308;2023-02-10T13:54:03;17.60;61.30
37658;DHT22;23500;53.268;8.308;2023-02-10T13:56:31;17.60;61.30
37658;DHT22;23500;53.268;8.308;2023-02-10T14:01:45;17.70;61.40
37658;DHT22;23500;53.268;8.308;2023-02-10T14:06:47;17.80;61.30
37658;DHT22;23500;53.268;8.308;2023-02-10T14:11:57;17.90;61.10
37658;DHT22;23500;53.268;8.308;2023-02-10T14:14:31;17.90;61.00
37658;DHT22;23500;53.268;8.308;2023-02-10T14:19:40;17.90;60.90
37658;DHT22;23500;53.268;8.308;2023-02-10T14:22:21;17.90;61.00
37658;DHT22;23500;53.268;8.308;2023-02-10T14:24:48;17.90;61.00
37658;DHT22;23500;53.268;8.308;2023-02-10T14:27:16;17.80;60.90
37658;DHT22;23500;53.268;8.308;2023-02-10T14:29:50;17.80;61.00
37658;DHT22;23500;53.268;8.308;2023-02-10T14:32:17;17.80;61.10
37658;DHT22;23500;53.268;8.308;2023-02-10T14:35:02;17.80;61.10
37658;DHT22;23500;53.268;8.308;2023-02-10T14:37:31;17.70;61.20
37658;DHT22;23500;53.268;8.308;2023-02-10T14:40:02;17.70;61.40
37658;DHT22;23500;53.268;8.308;2023-02-10T14:42:31;17.70;61.50
37658;DHT22;23500;53.268;8.308;2023-02-10T14:44:59;17.60;61.50
37658;DHT22;23500;53.268;8.308;2023-02-10T14:47:37;17.60;61.70
37658;DHT22;23500;53.268;8.308;2023-02-10T14:50:05;17.60;61.80
37658;DHT22;23500;53.268;8.308;2023-02-10T14:52:33;17.50;61.90
37658;DHT22;23500;53.268;8.308;2023-02-10T14:54:59;17.50;62.00
37658;DHT22;23500;53.268;8.308;2023-02-10T14:57:29;17.50;62.00
37658;DHT22;23500;53.268;8.308;2023-02-10T14:59:58;17.60;62.10
37658;DHT22;23500;53.268;8.308;2023-02-10T15:02:30;17.60;62.10
37658;DHT22;23500;53.268;8.308;2023-02-10T15:04:58;17.60;62.10
37658;DHT22;23500;53.268;8.308;2023-02-10T15:07:36;17.70;62.10
37658;DHT22;23500;53.268;8.308;2023-02-10T15:12:58;17.70;61.80
37658;DHT22;23500;53.268;8.308;2023-02-10T15:15:32;17.80;61.70
37658;DHT22;23500;53.268;8.308;2023-02-10T15:18:05;17.80;61.60
37658;DHT22;23500;53.268;8.308;2023-02-10T15:20:34;17.80;61.60
37658;DHT22;23500;53.268;8.308;2023-02-10T15:33:37;17.70;61.50
37658;DHT22;23500;53.268;8.308;2023-02-10T15:43:55;17.60;61.80
37658;DHT22;23500;53.268;8.308;2023-02-10T15:46:23;17.50;61.90
37658;DHT22;23500;53.268;8.308;2023-02-10T15:48:49;17.50;62.10
37658;DHT22;23500;53.268;8.308;2023-02-10T15:51:21;17.50;62.20
37658;DHT22;23500;53.268;8.308;2023-02-10T15:53:50;17.40;62.30
37658;DHT22;23500;53.268;8.308;2023-02-10T15:56:16;17.40;62.40
37658;DHT22;23500;53.268;8.308;2023-02-10T15:58:42;17.40;62.50
37658;DHT22;23500;53.268;8.308;2023-02-10T16:01:08;17.40;62.50
37658;DHT22;23500;53.268;8.308;2023-02-10T16:03:34;17.50;62.50
37658;DHT22;23500;53.268;8.308;2023-02-10T16:05:59;17.50;62.50
37658;DHT22;23500;53.268;8.308;2023-02-10T16:08:28;17.50;62.40
37658;DHT22;23500;53.268;8.308;2023-02-10T16:10:54;17.50;62.30
37658;DHT22;23500;53.268;8.308;2023-02-10T16:13:20;17.50;62.30
37658;DHT22;23500;53.268;8.308;2023-02-10T16:15:47;17.50;62.20
37658;DHT22;23500;53.268;8.308;2023-02-10T16:18:18;17.50;62.10
37658;DHT22;23500;53.268;8.308;2023-02-10T16:20:45;17.50;62.10
37658;DHT22;23500;53.268;8.308;2023-02-10T16:23:16;17.50;62.00
37658;DHT22;23500;53.268;8.308;2023-02-10T16:25:43;17.50;62.00
37658;DHT22;23500;53.268;8.308;2023-02-10T16:28:17;17.50;62.00
37658;DHT22;23500;53.268;8.308;2023-02-10T16:30:44;17.50;62.10
37658;DHT22;23500;53.268;8.308;2023-02-10T16:33:10;17.50;62.10
37658;DHT22;23500;53.268;8.308;2023-02-10T16:35:36;17.50;62.10
37658;DHT22;23500;53.268;8.308;2023-02-10T16:38:02;17.40;62.20
37658;DHT22;23500;53.268;8.308;2023-02-10T16:40:31;17.40;62.20
37658;DHT22;23500;53.268;8.308;2023-02-10T16:42:57;17.40;62.40
37658;DHT22;23500;53.268;8.308;2023-02-10T16:45:25;17.40;62.50
37658;DHT22;23500;53.268;8.308;2023-02-10T16:47:51;17.30;62.60
37658;DHT22;23500;53.268;8.308;2023-02-10T16:50:30;17.30;62.70
37658;DHT22;23500;53.268;8.308;2023-02-10T16:52:56;17.30;62.80
37658;DHT22;23500;53.268;8.308;2023-02-10T16:55:22;17.20;62.90
37658;DHT22;23500;53.268;8.308;2023-02-10T16:57:48;17.20;63.00
37658;DHT22;23500;53.268;8.308;2023-02-10T17:00:14;17.20;63.10
37658;DHT22;23500;53.268;8.308;2023-02-10T17:02:41;17.20;63.10
37658;DHT22;23500;53.268;8.308;2023-02-10T17:05:08;17.30;63.10
37658;DHT22;23500;53.268;8.308;2023-02-10T17:07:34;17.20;63.00
37658;DHT22;23500;53.268;8.308;2023-02-10T17:10:01;17.30;63.00
37658;DHT22;23500;53.268;8.308;2023-02-10T17:12:26;17.30;62.90
37658;DHT22;23500;53.268;8.308;2023-02-10T17:14:52;17.30;62.80
37658;DHT22;23500;53.268;8.308;2023-02-10T17:17:18;17.30;62.80
37658;DHT22;23500;53.268;8.308;2023-02-10T17:19:43;17.30;62.70
37658;DHT22;23500;53.268;8.308;2023-02-10T17:22:09;17.30;62.70
37658;DHT22;23500;53.268;8.308;2023-02-10T17:24:34;17.30;62.70
37658;DHT22;23500;53.268;8.308;2023-02-10T17:27:00;17.30;62.80
37658;DHT22;23500;53.268;8.308;2023-02-10T17:29:26;17.30;63.00
37658;DHT22;23500;53.268;8.308;2023-02-10T17:31:51;17.30;63.00
37658;DHT22;23500;53.268;8.308;2023-02-10T17:34:17;17.20;63.10
37658;DHT22;23500;53.268;8.308;2023-02-10T17:36:45;17.20;63.40
37658;DHT22;23500;53.268;8.308;2023-02-10T17:39:16;17.10;63.50
37658;DHT22;23500;53.268;8.308;2023-02-10T17:41:53;17.10;63.60
37658;DHT22;23500;53.268;8.308;2023-02-10T17:44:18;17.10;63.70
37658;DHT22;23500;53.268;8.308;2023-02-10T17:46:45;17.10;63.90
37658;DHT22;23500;53.268;8.308;2023-02-10T17:49:14;17.00;64.00
37658;DHT22;23500;53.268;8.308;2023-02-10T17:51:41;17.00;64.20
37658;DHT22;23500;53.268;8.308;2023-02-10T17:54:07;17.00;64.30
37658;DHT22;23500;53.268;8.308;2023-02-10T17:56:33;17.00;64.40
37658;DHT22;23500;53.268;8.308;2023-02-10T17:59:01;17.00;64.50
37658;DHT22;23500;53.268;8.308;2023-02-10T18:01:29;17.00;64.50
37658;DHT22;23500;53.268;8.308;2023-02-10T18:03:56;17.00;64.50